sensor_id;sensor_type;location;lat;lon;timestamp;temperature;humidity
3614;DHT22;1821;50.936;6.854;2023-08-20T00:00:04;21.10;99.90
3614;DHT22;1821;50.936;6.854;2023-08-20T00:00:48;21.10;99.90
3614;DHT22;1821;50.936;6.854;2023-08-20T00:01:33;19.60;1.00
3614;DHT22;1821;50.936;6.854;2023-08-20T00:02:16;21.10;99.90
3614;DHT22;1821;50.936;6.854;2023-08-20T00:03:11;21.20;1.00
3614;DHT22;1821;50.936;6.854;2023-08-20T00:03:53;21.10;99.90
3614;DHT22;1821;50.936;6.854;2023-08-20T00:04:36;21.10;99.90
3614;DHT22;1821;50.936;6.854;2023-08-20T00:05:21;21.20;99.90
3614;DHT22;1821;50.936;6.854;2023-08-20T00:06:03;21.00;99.90
3614;DHT22;1821;50.936;6.854;2023-08-20T00:06:48;21.10;99.90
3614;DHT22;1821;50.936;6.854;2023-08-20T00:07:31;21.10;99.90
3614;DHT22;1821;50.936;6.854;2023-08-20T00:08:13;21.10;99.90
3614;DHT22;1821;50.936;6.854;2023-08-20T00:08:55;21.20;99.90
3614;DHT22;1821;50.936;6.854;2023-08-20T00:09:37;21.20;99.90
3614;DHT22;1821;50.936;6.854;2023-08-20T00:10:19;21.20;99.90
3614;DHT22;1821;50.936;6.854;2023-08-20T00:11:01;21.20;99.90
3614;DHT22;1821;50.936;6.854;2023-08-20T00:11:43;21.00;99.90
3614;DHT22;1821;50.936;6.854;2023-08-20T00:12:25;21.10;99.90
3614;DHT22;1821;50.936;6.854;2023-08-20T00:13:07;21.10;99.90
3614;DHT22;1821;50.936;6.854;2023-08-20T00:13:49;21.10;99.90
3614;DHT22;1821;50.936;6.854;2023-08-20T00:14:54;21.00;99.90
3614;DHT22;1821;50.936;6.854;2023-08-20T00:15:36;21.00;99.90
3614;DHT22;1821;50.936;6.854;2023-08-20T00:16:19;21.00;99.90
3614;DHT22;1821;50.936;6.854;2023-08-20T00:17:01;21.60;99.90
3614;DHT22;1821;50.936;6.854;2023-08-20T00:17:43;21.00;99.90
3614;DHT22;1821;50.936;6.854;2023-08-20T00:18:28;20.90;99.90
3614;DHT22;1821;50.936;6.854;2023-08-20T00:19:10;20.90;99.90
3614;DHT22;1821;50.936;6.854;2023-08-20T00:19:54;20.90;99.90
3614;DHT22;1821;50.936;6.854;2023-08-20T00:20:36;20.90;1.00
3614;DHT22;1821;50.936;6.854;2023-08-20T00:21:18;20.80;1.00
3614;DHT22;1821;50.936;6.854;2023-08-20T00:22:03;20.90;1.00
3614;DHT22;1821;50.936;6.854;2023-08-20T00:22:45;20.90;1.00
3614;DHT22;1821;50.936;6.854;2023-08-20T00:23:28;20.90;99.90
3614;DHT22;1821;50.936;6.854;2023-08-20T00:24:11;20.90;1.00
3614;DHT22;1821;50.936;6.854;2023-08-20T00:24:54;21.00;1.00
3614;DHT22;1821;50.936;6.854;2023-08-20T00:25:36;21.00;1.00
3614;DHT22;1821;50.936;6.854;2023-08-20T00:26:21;20.90;1.00
3614;DHT22;1821;50.936;6.854;2023-08-20T00:27:03;20.90;99.90
3614;DHT22;1821;50.936;6.854;2023-08-20T00:27:44;20.90;1.00
3614;DHT22;1821;50.936;6.854;2023-08-20T00:28:26;20.60;1.00
3614;DHT22;1821;50.936;6.854;2023-08-20T00:29:09;20.90;99.90
3614;DHT22;1821;50.936;6.854;2023-08-20T00:29:50;20.90;99.90
3614;DHT22;1821;50.936;6.854;2023-08-20T00:30:35;21.00;1.00
3614;DHT22;1821;50.936;6.854;2023-08-20T00:31:17;17.50;1.00
3614;DHT22;1821;50.936;6.854;2023-08-20T00:31:59;20.90;99.90
3614;DHT22;1821;50.936;6.854;2023-08-20T00:32:41;20.90;1.00
3614;DHT22;1821;50.936;6.854;2023-08-20T00:33:23;20.90;1.00
3614;DHT22;1821;50.936;6.854;2023-08-20T00:34:07;20.60;1.00
3614;DHT22;1821;50.936;6.854;2023-08-20T00:34:49;19.80;1.00
3614;DHT22;1821;50.936;6.854;2023-08-20T00:35:33;20.90;1.00
3614;DHT22;1821;50.936;6.854;2023-08-20T00:36:17;20.90;1.00
3614;DHT22;1821;50.936;6.854;2023-08-20T00:37:00;20.80;1.00
3614;DHT22;1821;50.936;6.854;2023-08-20T00:37:42;20.90;1.00
3614;DHT22;1821;50.936;6.854;2023-08-20T00:38:26;20.80;1.00
3614;DHT22;1821;50.936;6.854;2023-08-20T00:39:08;20.80;1.00
3614;DHT22;1821;50.936;6.854;2023-08-20T00:39:49;20.80;1.00
3614;DHT22;1821;50.936;6.854;2023-08-20T00:40:33;20.80;1.00
3614;DHT22;1821;50.936;6.854;2023-08-20T00:41:18;20.90;1.00
3614;DHT22;1821;50.936;6.854;2023-08-20T00:42:00;20.80;1.00
3614;DHT22;1821;50.936;6.854;2023-08-20T00:42:42;20.80;1.00
3614;DHT22;1821;50.936;6.854;2023-08-20T00:43:24;20.70;1.00
3614;DHT22;1821;50.936;6.854;2023-08-20T00:44:06;20.70;1.00
3614;DHT22;1821;50.936;6.854;2023-08-20T00:44:48;20.80;1.00
3614;DHT22;1821;50.936;6.854;2023-08-20T00:45:30;20.80;1.00
3614;DHT22;1821;50.936;6.854;2023-08-20T00:46:12;20.70;1.00
3614;DHT22;1821;50.936;6.854;2023-08-20T00:46:54;20.70;1.00
3614;DHT22;1821;50.936;6.854;2023-08-20T00:47:37;20.60;99.90
3614;DHT22;1821;50.936;6.854;2023-08-20T00:48:21;20.60;99.90
3614;DHT22;1821;50.936;6.854;2023-08-20T00:49:04;20.60;99.90
3614;DHT22;1821;50.936;6.854;2023-08-20T00:49:49;20.60;1.00
3614;DHT22;1821;50.936;6.854;2023-08-20T00:50:31;20.70;99.90
3614;DHT22;1821;50.936;6.854;2023-08-20T00:51:13;20.70;99.90
3614;DHT22;1821;50.936;6.854;2023-08-20T00:51:55;20.60;1.00
3614;DHT22;1821;50.936;6.854;2023-08-20T00:52:40;20.60;1.00
3614;DHT22;1821;50.936;6.854;2023-08-20T00:53:22;20.60;1.00
3614;DHT22;1821;50.936;6.854;2023-08-20T00:54:05;20.70;1.00
3614;DHT22;1821;50.936;6.854;2023-08-20T00:54:48;20.70;99.90
3614;DHT22;1821;50.936;6.854;2023-08-20T00:55:30;20.70;99.90
3614;DHT22;1821;50.936;6.854;2023-08-20T00:56:12;20.60;99.90
3614;DHT22;1821;50.936;6.854;2023-08-20T00:56:54;20.60;99.90
3614;DHT22;1821;50.936;6.854;2023-08-20T00:57:39;20.60;99.90
3614;DHT22;1821;50.936;6.854;2023-08-20T00:58:21;20.50;99.90
3614;DHT22;1821;50.936;6.854;2023-08-20T00:59:05;20.60;99.90
3614;DHT22;1821;50.936;6.854;2023-08-20T00:59:47;20.60;99.90
3614;DHT22;1821;50.936;6.854;2023-08-20T01:00:33;20.60;99.90
3614;DHT22;1821;50.936;6.854;2023-08-20T01:01:15;20.60;99.90
3614;DHT22;1821;50.936;6.854;2023-08-20T01:01:57;20.60;99.90
3614;DHT22;1821;50.936;6.854;2023-08-20T01:02:40;20.60;99.90
3614;DHT22;1821;50.936;6.854;2023-08-20T01:03:22;20.60;99.90
3614;DHT22;1821;50.936;6.854;2023-08-20T01:04:05;20.60;99.90
3614;DHT22;1821;50.936;6.854;2023-08-20T01:04:48;20.60;99.90
3614;DHT22;1821;50.936;6.854;2023-08-20T01:05:33;20.60;99.90
3614;DHT22;1821;50.936;6.854;2023-08-20T01:06:51;20.50;99.90
3614;DHT22;1821;50.936;6.854;2023-08-20T01:07:58;20.50;99.90
3614;DHT22;1821;50.936;6.854;2023-08-20T01:08:41;20.40;99.90
3614;DHT22;1821;50.936;6.854;2023-08-20T01:11:21;20.40;1.00
3614;DHT22;1821;50.936;6.854;2023-08-20T01:12:06;20.40;1.00
3614;DHT22;1821;50.936;6.854;2023-08-20T01:12:49;20.50;1.00
3614;DHT22;1821;50.936;6.854;2023-08-20T01:13:31;20.40;1.00
3614;DHT22;1821;50.936;6.854;2023-08-20T01:14:17;20.40;1.00
3614;DHT22;1821;50.936;6.854;2023-08-20T01:14:59;20.40;1.00
3614;DHT22;1821;50.936;6.854;2023-08-20T01:15:40;20.30;1.00
3614;DHT22;1821;50.936;6.854;2023-08-20T01:16:23;20.30;1.00
3614;DHT22;1821;50.936;6.854;2023-08-20T01:17:05;20.30;1.00
3614;DHT22;1821;50.936;6.854;2023-08-20T01:17:48;20.30;1.00
3614;DHT22;1821;50.936;6.854;2023-08-20T01:18:30;20.30;1.00
3614;DHT22;1821;50.936;6.854;2023-08-20T01:19:17;20.30;1.00
3614;DHT22;1821;50.936;6.854;2023-08-20T01:19:59;20.20;1.00
3614;DHT22;1821;50.936;6.854;2023-08-20T01:20:59;20.20;1.00
3614;DHT22;1821;50.936;6.854;2023-08-20T01:25:04;20.30;1.00
3614;DHT22;1821;50.936;6.854;2023-08-20T01:27:24;20.30;1.00
3614;DHT22;1821;50.936;6.854;2023-08-20T01:28:29;20.20;1.00
3614;DHT22;1821;50.936;6.854;2023-08-20T01:29:12;20.20;1.00
3614;DHT22;1821;50.936;6.854;2023-08-20T01:29:55;20.10;1.00
3614;DHT22;1821;50.936;6.854;2023-08-20T01:30:39;20.10;1.00
3614;DHT22;1821;50.936;6.854;2023-08-20T01:31:25;20.10;1.00
3614;DHT22;1821;50.936;6.854;2023-08-20T01:32:08;20.10;1.00
3614;DHT22;1821;50.936;6.854;2023-08-20T01:32:52;20.20;1.00
3614;DHT22;1821;50.936;6.854;2023-08-20T01:33:37;20.10;1.00
3614;DHT22;1821;50.936;6.854;2023-08-20T01:34:19;20.10;1.00
3614;DHT22;1821;50.936;6.854;2023-08-20T01:35:02;20.20;58.10
3614;DHT22;1821;50.936;6.854;2023-08-20T01:35:44;20.20;1.00
3614;DHT22;1821;50.936;6.854;2023-08-20T01:36:26;20.20;1.00
3614;DHT22;1821;50.936;6.854;2023-08-20T01:37:08;20.20;1.00
3614;DHT22;1821;50.936;6.854;2023-08-20T01:37:49;20.30;1.00
3614;DHT22;1821;50.936;6.854;2023-08-20T01:38:31;20.30;1.00
3614;DHT22;1821;50.936;6.854;2023-08-20T01:39:16;20.30;1.00
3614;DHT22;1821;50.936;6.854;2023-08-20T01:39:58;20.20;71.90
3614;DHT22;1821;50.936;6.854;2023-08-20T01:40:40;20.20;1.00
3614;DHT22;1821;50.936;6.854;2023-08-20T01:41:22;20.00;1.00
3614;DHT22;1821;50.936;6.854;2023-08-20T01:42:07;20.30;1.00
3614;DHT22;1821;50.936;6.854;2023-08-20T01:42:49;20.30;1.00
3614;DHT22;1821;50.936;6.854;2023-08-20T01:43:31;20.20;51.70
3614;DHT22;1821;50.936;6.854;2023-08-20T01:44:12;20.20;1.00
3614;DHT22;1821;50.936;6.854;2023-08-20T01:44:55;20.30;1.00
3614;DHT22;1821;50.936;6.854;2023-08-20T01:45:37;20.30;1.00
3614;DHT22;1821;50.936;6.854;2023-08-20T01:46:19;20.30;1.00
3614;DHT22;1821;50.936;6.854;2023-08-20T01:47:01;20.30;1.00
3614;DHT22;1821;50.936;6.854;2023-08-20T01:47:43;20.30;1.00
3614;DHT22;1821;50.936;6.854;2023-08-20T01:48:25;20.30;1.00
3614;DHT22;1821;50.936;6.854;2023-08-20T01:49:07;20.30;1.00
3614;DHT22;1821;50.936;6.854;2023-08-20T01:49:50;20.30;99.90
3614;DHT22;1821;50.936;6.854;2023-08-20T01:50:34;20.30;99.90
3614;DHT22;1821;50.936;6.854;2023-08-20T01:51:16;20.20;99.90
3614;DHT22;1821;50.936;6.854;2023-08-20T01:51:58;20.20;99.90
3614;DHT22;1821;50.936;6.854;2023-08-20T01:52:40;20.20;1.00
3614;DHT22;1821;50.936;6.854;2023-08-20T01:53:22;20.10;1.00
3614;DHT22;1821;50.936;6.854;2023-08-20T01:54:04;20.10;1.00
3614;DHT22;1821;50.936;6.854;2023-08-20T01:54:48;20.10;1.00
3614;DHT22;1821;50.936;6.854;2023-08-20T01:55:30;20.20;1.00
3614;DHT22;1821;50.936;6.854;2023-08-20T01:56:13;20.10;1.00
3614;DHT22;1821;50.936;6.854;2023-08-20T01:56:58;20.10;1.00
3614;DHT22;1821;50.936;6.854;2023-08-20T01:57:40;20.10;1.00
3614;DHT22;1821;50.936;6.854;2023-08-20T01:58:22;20.10;1.00
3614;DHT22;1821;50.936;6.854;2023-08-20T01:59:04;20.10;1.00
3614;DHT22;1821;50.936;6.854;2023-08-20T01:59:47;20.20;1.00
3614;DHT22;1821;50.936;6.854;2023-08-20T02:00:29;20.20;1.00
3614;DHT22;1821;50.936;6.854;2023-08-20T02:01:12;20.20;1.00
3614;DHT22;1821;50.936;6.854;2023-08-20T02:01:54;20.20;1.00
3614;DHT22;1821;50.936;6.854;2023-08-20T02:02:36;20.20;1.00
3614;DHT22;1821;50.936;6.854;2023-08-20T02:03:18;20.10;1.00
3614;DHT22;1821;50.936;6.854;2023-08-20T02:04:01;17.90;1.00
3614;DHT22;1821;50.936;6.854;2023-08-20T02:04:43;20.00;1.00
3614;DHT22;1821;50.936;6.854;2023-08-20T02:05:25;20.10;1.00
3614;DHT22;1821;50.936;6.854;2023-08-20T02:06:08;20.00;1.00
3614;DHT22;1821;50.936;6.854;2023-08-20T02:06:49;19.90;1.00
3614;DHT22;1821;50.936;6.854;2023-08-20T02:08:14;20.00;10.60
3614;DHT22;1821;50.936;6.854;2023-08-20T02:08:59;19.90;62.50
3614;DHT22;1821;50.936;6.854;2023-08-20T02:09:43;20.00;91.70
3614;DHT22;1821;50.936;6.854;2023-08-20T02:10:25;20.00;96.30
3614;DHT22;1821;50.936;6.854;2023-08-20T02:11:07;20.00;50.80
3614;DHT22;1821;50.936;6.854;2023-08-20T02:11:49;20.00;38.50
3614;DHT22;1821;50.936;6.854;2023-08-20T02:12:33;20.00;19.20
3614;DHT22;1821;50.936;6.854;2023-08-20T02:13:15;20.00;9.60
3614;DHT22;1821;50.936;6.854;2023-08-20T02:13:57;20.00;16.80
3614;DHT22;1821;50.936;6.854;2023-08-20T02:14:39;20.00;2.40
3614;DHT22;1821;50.936;6.854;2023-08-20T02:15:21;20.10;1.00
3614;DHT22;1821;50.936;6.854;2023-08-20T02:16:03;20.00;1.00
3614;DHT22;1821;50.936;6.854;2023-08-20T02:16:47;20.10;1.00
3614;DHT22;1821;50.936;6.854;2023-08-20T02:17:29;20.00;1.00
3614;DHT22;1821;50.936;6.854;2023-08-20T02:18:11;20.00;1.00
3614;DHT22;1821;50.936;6.854;2023-08-20T02:18:53;20.00;1.00
3614;DHT22;1821;50.936;6.854;2023-08-20T02:19:35;20.00;15.30
3614;DHT22;1821;50.936;6.854;2023-08-20T02:20:17;20.00;47.30
3614;DHT22;1821;50.936;6.854;2023-08-20T02:21:00;20.00;1.00
3614;DHT22;1821;50.936;6.854;2023-08-20T02:21:42;20.00;1.00
3614;DHT22;1821;50.936;6.854;2023-08-20T02:22:24;20.00;44.30
3614;DHT22;1821;50.936;6.854;2023-08-20T02:23:05;20.10;79.00
3614;DHT22;1821;50.936;6.854;2023-08-20T02:23:49;20.10;99.90
3614;DHT22;1821;50.936;6.854;2023-08-20T02:24:34;20.10;92.20
3614;DHT22;1821;50.936;6.854;2023-08-20T02:25:18;20.20;28.00
3614;DHT22;1821;50.936;6.854;2023-08-20T02:26:00;20.20;1.00
3614;DHT22;1821;50.936;6.854;2023-08-20T02:26:42;20.20;1.00
3614;DHT22;1821;50.936;6.854;2023-08-20T02:27:24;20.20;1.00
3614;DHT22;1821;50.936;6.854;2023-08-20T02:28:06;20.20;1.00
3614;DHT22;1821;50.936;6.854;2023-08-20T02:28:48;20.30;1.00
3614;DHT22;1821;50.936;6.854;2023-08-20T02:29:30;20.30;1.00
3614;DHT22;1821;50.936;6.854;2023-08-20T02:30:12;20.20;1.00
3614;DHT22;1821;50.936;6.854;2023-08-20T02:30:57;20.30;1.00
3614;DHT22;1821;50.936;6.854;2023-08-20T02:31:39;20.20;1.00
3614;DHT22;1821;50.936;6.854;2023-08-20T02:32:21;20.30;1.00
3614;DHT22;1821;50.936;6.854;2023-08-20T02:33:03;20.30;1.00
3614;DHT22;1821;50.936;6.854;2023-08-20T02:33:45;20.30;1.00
3614;DHT22;1821;50.936;6.854;2023-08-20T02:34:27;20.30;1.00
3614;DHT22;1821;50.936;6.854;2023-08-20T02:35:09;20.20;1.00
3614;DHT22;1821;50.936;6.854;2023-08-20T02:35:51;20.20;1.00
3614;DHT22;1821;50.936;6.854;2023-08-20T02:36:33;20.20;1.00
3614;DHT22;1821;50.936;6.854;2023-08-20T02:37:15;20.20;1.00
3614;DHT22;1821;50.936;6.854;2023-08-20T02:37:59;20.60;1.00
3614;DHT22;1821;50.936;6.854;2023-08-20T02:38:41;20.20;1.00
3614;DHT22;1821;50.936;6.854;2023-08-20T02:39:23;16.90;1.00
3614;DHT22;1821;50.936;6.854;2023-08-20T02:40:08;20.20;1.00
3614;DHT22;1821;50.936;6.854;2023-08-20T02:40:50;20.20;1.00
3614;DHT22;1821;50.936;6.854;2023-08-20T02:41:32;20.20;1.00
3614;DHT22;1821;50.936;6.854;2023-08-20T02:42:14;20.20;1.00
3614;DHT22;1821;50.936;6.854;2023-08-20T02:42:58;20.20;1.00
3614;DHT22;1821;50.936;6.854;2023-08-20T02:43:40;20.20;1.00
3614;DHT22;1821;50.936;6.854;2023-08-20T02:44:22;20.20;1.00
3614;DHT22;1821;50.936;6.854;2023-08-20T02:45:05;20.20;1.00
3614;DHT22;1821;50.936;6.854;2023-08-20T02:45:47;20.20;19.60
3614;DHT22;1821;50.936;6.854;2023-08-20T02:46:29;20.30;21.90
3614;DHT22;1821;50.936;6.854;2023-08-20T02:47:11;20.20;4.20
3614;DHT22;1821;50.936;6.854;2023-08-20T02:47:53;20.30;20.40
3614;DHT22;1821;50.936;6.854;2023-08-20T02:48:35;20.30;1.00
3614;DHT22;1821;50.936;6.854;2023-08-20T02:49:17;20.40;1.00
3614;DHT22;1821;50.936;6.854;2023-08-20T02:49:59;20.30;1.00
3614;DHT22;1821;50.936;6.854;2023-08-20T02:50:41;20.40;1.00
3614;DHT22;1821;50.936;6.854;2023-08-20T02:51:22;20.40;1.00
3614;DHT22;1821;50.936;6.854;2023-08-20T02:52:04;20.40;1.00
3614;DHT22;1821;50.936;6.854;2023-08-20T02:52:46;20.30;1.00
3614;DHT22;1821;50.936;6.854;2023-08-20T02:53:28;20.40;1.00
3614;DHT22;1821;50.936;6.854;2023-08-20T02:54:10;20.40;1.00
3614;DHT22;1821;50.936;6.854;2023-08-20T02:54:52;20.30;1.00
3614;DHT22;1821;50.936;6.854;2023-08-20T02:55:34;20.30;1.00
3614;DHT22;1821;50.936;6.854;2023-08-20T02:56:17;20.30;1.00
3614;DHT22;1821;50.936;6.854;2023-08-20T02:56:59;20.30;1.00
3614;DHT22;1821;50.936;6.854;2023-08-20T02:57:41;20.30;1.00
3614;DHT22;1821;50.936;6.854;2023-08-20T02:58:23;20.20;4.30
3614;DHT22;1821;50.936;6.854;2023-08-20T02:59:05;20.30;30.70
3614;DHT22;1821;50.936;6.854;2023-08-20T02:59:47;20.20;38.50
3614;DHT22;1821;50.936;6.854;2023-08-20T03:00:29;20.30;57.90
3614;DHT22;1821;50.936;6.854;2023-08-20T03:01:21;20.10;53.20
3614;DHT22;1821;50.936;6.854;2023-08-20T03:02:04;20.20;80.20
3614;DHT22;1821;50.936;6.854;2023-08-20T03:02:46;20.20;98.00
3614;DHT22;1821;50.936;6.854;2023-08-20T03:03:30;20.30;82.70
3614;DHT22;1821;50.936;6.854;2023-08-20T03:04:12;20.40;90.10
3614;DHT22;1821;50.936;6.854;2023-08-20T03:04:54;20.30;23.10
3614;DHT22;1821;50.936;6.854;2023-08-20T03:05:37;20.30;13.30
3614;DHT22;1821;50.936;6.854;2023-08-20T03:06:19;20.30;17.70
3614;DHT22;1821;50.936;6.854;2023-08-20T03:07:04;20.20;30.50
3614;DHT22;1821;50.936;6.854;2023-08-20T03:07:46;20.30;25.50
3614;DHT22;1821;50.936;6.854;2023-08-20T03:08:28;20.30;37.20
3614;DHT22;1821;50.936;6.854;2023-08-20T03:09:10;20.30;41.40
3614;DHT22;1821;50.936;6.854;2023-08-20T03:09:52;20.10;41.30
3614;DHT22;1821;50.936;6.854;2023-08-20T03:10:34;20.20;53.50
3614;DHT22;1821;50.936;6.854;2023-08-20T03:11:18;20.20;99.90
3614;DHT22;1821;50.936;6.854;2023-08-20T03:12:01;20.30;96.30
3614;DHT22;1821;50.936;6.854;2023-08-20T03:12:43;20.30;99.90
3614;DHT22;1821;50.936;6.854;2023-08-20T03:13:25;20.30;99.60
3614;DHT22;1821;50.936;6.854;2023-08-20T03:14:07;20.30;87.80
3614;DHT22;1821;50.936;6.854;2023-08-20T03:14:49;20.30;53.50
3614;DHT22;1821;50.936;6.854;2023-08-20T03:15:31;20.40;35.80
3614;DHT22;1821;50.936;6.854;2023-08-20T03:16:13;20.40;27.70
3614;DHT22;1821;50.936;6.854;2023-08-20T03:16:55;20.40;16.90
3614;DHT22;1821;50.936;6.854;2023-08-20T03:17:37;20.40;9.00
3614;DHT22;1821;50.936;6.854;2023-08-20T03:18:19;20.40;5.60
3614;DHT22;1821;50.936;6.854;2023-08-20T03:19:01;20.40;1.00
3614;DHT22;1821;50.936;6.854;2023-08-20T03:19:57;20.40;1.00
3614;DHT22;1821;50.936;6.854;2023-08-20T03:20:39;20.40;1.00
3614;DHT22;1821;50.936;6.854;2023-08-20T03:21:21;20.50;1.00
3614;DHT22;1821;50.936;6.854;2023-08-20T03:22:03;20.40;1.00
3614;DHT22;1821;50.936;6.854;2023-08-20T03:22:45;20.40;1.00
3614;DHT22;1821;50.936;6.854;2023-08-20T03:23:27;20.50;1.00
3614;DHT22;1821;50.936;6.854;2023-08-20T03:24:09;20.40;1.00
3614;DHT22;1821;50.936;6.854;2023-08-20T03:24:52;20.40;1.00
3614;DHT22;1821;50.936;6.854;2023-08-20T03:25:34;20.40;1.00
3614;DHT22;1821;50.936;6.854;2023-08-20T03:26:16;20.40;1.00
3614;DHT22;1821;50.936;6.854;2023-08-20T03:26:58;20.40;1.00
3614;DHT22;1821;50.936;6.854;2023-08-20T03:27:41;20.40;1.00
3614;DHT22;1821;50.936;6.854;2023-08-20T03:28:22;20.40;1.00
3614;DHT22;1821;50.936;6.854;2023-08-20T03:29:06;20.30;1.00
3614;DHT22;1821;50.936;6.854;2023-08-20T03:29:49;20.30;1.00
3614;DHT22;1821;50.936;6.854;2023-08-20T03:30:31;20.40;1.00
3614;DHT22;1821;50.936;6.854;2023-08-20T03:31:13;20.30;1.00
3614;DHT22;1821;50.936;6.854;2023-08-20T03:31:55;20.30;1.00
3614;DHT22;1821;50.936;6.854;2023-08-20T03:32:37;20.30;1.00
3614;DHT22;1821;50.936;6.854;2023-08-20T03:33:20;20.30;1.00
3614;DHT22;1821;50.936;6.854;2023-08-20T03:34:02;20.20;1.00
3614;DHT22;1821;50.936;6.854;2023-08-20T03:34:44;20.20;1.00
3614;DHT22;1821;50.936;6.854;2023-08-20T03:35:26;20.10;8.20
3614;DHT22;1821;50.936;6.854;2023-08-20T03:36:08;20.00;27.50
3614;DHT22;1821;50.936;6.854;2023-08-20T03:36:49;20.20;50.90
3614;DHT22;1821;50.936;6.854;2023-08-20T03:37:32;20.20;76.00
3614;DHT22;1821;50.936;6.854;2023-08-20T03:38:14;20.20;37.30
3614;DHT22;1821;50.936;6.854;2023-08-20T03:38:56;20.20;37.50
3614;DHT22;1821;50.936;6.854;2023-08-20T03:39:38;20.10;55.30
3614;DHT22;1821;50.936;6.854;2023-08-20T03:40:20;20.10;99.90
3614;DHT22;1821;50.936;6.854;2023-08-20T03:41:02;20.20;99.90
3614;DHT22;1821;50.936;6.854;2023-08-20T03:41:44;20.20;99.90
3614;DHT22;1821;50.936;6.854;2023-08-20T03:42:27;20.20;67.10
3614;DHT22;1821;50.936;6.854;2023-08-20T03:43:09;20.20;70.10
3614;DHT22;1821;50.936;6.854;2023-08-20T03:43:51;19.60;60.20
3614;DHT22;1821;50.936;6.854;2023-08-20T03:44:32;20.10;95.30
3614;DHT22;1821;50.936;6.854;2023-08-20T03:45:14;20.00;99.90
3614;DHT22;1821;50.936;6.854;2023-08-20T03:45:56;20.10;99.90
3614;DHT22;1821;50.936;6.854;2023-08-20T03:46:38;20.10;99.90
3614;DHT22;1821;50.936;6.854;2023-08-20T03:47:20;20.10;99.90
3614;DHT22;1821;50.936;6.854;2023-08-20T03:48:02;20.10;99.90
3614;DHT22;1821;50.936;6.854;2023-08-20T03:48:44;20.10;99.90
3614;DHT22;1821;50.936;6.854;2023-08-20T03:49:26;20.00;99.90
3614;DHT22;1821;50.936;6.854;2023-08-20T03:50:08;20.10;99.90
3614;DHT22;1821;50.936;6.854;2023-08-20T03:50:53;20.10;99.90
3614;DHT22;1821;50.936;6.854;2023-08-20T03:51:36;20.10;99.90
3614;DHT22;1821;50.936;6.854;2023-08-20T03:52:18;20.10;99.90
3614;DHT22;1821;50.936;6.854;2023-08-20T03:53:00;20.10;99.90
3614;DHT22;1821;50.936;6.854;2023-08-20T03:53:41;20.10;99.90
3614;DHT22;1821;50.936;6.854;2023-08-20T03:55:06;20.10;99.90
3614;DHT22;1821;50.936;6.854;2023-08-20T03:55:49;20.10;99.90
3614;DHT22;1821;50.936;6.854;2023-08-20T03:56:31;20.10;99.90
3614;DHT22;1821;50.936;6.854;2023-08-20T03:57:13;20.10;99.90
3614;DHT22;1821;50.936;6.854;2023-08-20T03:57:55;20.10;91.10
3614;DHT22;1821;50.936;6.854;2023-08-20T03:58:37;20.10;99.20
3614;DHT22;1821;50.936;6.854;2023-08-20T03:59:18;20.00;95.20
3614;DHT22;1821;50.936;6.854;2023-08-20T04:00:04;20.00;77.90
3614;DHT22;1821;50.936;6.854;2023-08-20T04:00:46;20.00;65.30
3614;DHT22;1821;50.936;6.854;2023-08-20T04:01:28;20.00;94.70
3614;DHT22;1821;50.936;6.854;2023-08-20T04:02:10;20.20;24.20
3614;DHT22;1821;50.936;6.854;2023-08-20T04:02:52;20.00;33.00
3614;DHT22;1821;50.936;6.854;2023-08-20T04:03:34;20.10;54.80
3614;DHT22;1821;50.936;6.854;2023-08-20T04:04:16;20.00;39.00
3614;DHT22;1821;50.936;6.854;2023-08-20T04:04:58;20.10;61.10
3614;DHT22;1821;50.936;6.854;2023-08-20T04:05:40;20.20;99.90
3614;DHT22;1821;50.936;6.854;2023-08-20T04:06:22;20.00;99.90
3614;DHT22;1821;50.936;6.854;2023-08-20T04:07:04;20.00;99.90
3614;DHT22;1821;50.936;6.854;2023-08-20T04:07:46;20.00;99.90
3614;DHT22;1821;50.936;6.854;2023-08-20T04:08:29;20.00;99.90
3614;DHT22;1821;50.936;6.854;2023-08-20T04:09:11;19.90;99.90
3614;DHT22;1821;50.936;6.854;2023-08-20T04:09:53;20.00;99.90
3614;DHT22;1821;50.936;6.854;2023-08-20T04:10:35;20.10;99.90
3614;DHT22;1821;50.936;6.854;2023-08-20T04:11:17;20.20;99.90
3614;DHT22;1821;50.936;6.854;2023-08-20T04:11:59;20.10;99.90
3614;DHT22;1821;50.936;6.854;2023-08-20T04:12:41;20.10;99.90
3614;DHT22;1821;50.936;6.854;2023-08-20T04:13:23;20.00;99.90
3614;DHT22;1821;50.936;6.854;2023-08-20T04:14:05;20.00;99.90
3614;DHT22;1821;50.936;6.854;2023-08-20T04:14:47;20.10;99.90
3614;DHT22;1821;50.936;6.854;2023-08-20T04:15:29;20.10;99.90
3614;DHT22;1821;50.936;6.854;2023-08-20T04:16:13;20.00;99.90
3614;DHT22;1821;50.936;6.854;2023-08-20T04:16:55;20.00;99.90
3614;DHT22;1821;50.936;6.854;2023-08-20T04:17:37;20.00;99.90
3614;DHT22;1821;50.936;6.854;2023-08-20T04:18:20;19.90;63.60
3614;DHT22;1821;50.936;6.854;2023-08-20T04:19:02;20.00;99.90
3614;DHT22;1821;50.936;6.854;2023-08-20T04:19:44;20.00;99.90
3614;DHT22;1821;50.936;6.854;2023-08-20T04:20:26;20.00;99.90
3614;DHT22;1821;50.936;6.854;2023-08-20T04:21:08;20.00;99.90
3614;DHT22;1821;50.936;6.854;2023-08-20T04:21:50;20.00;99.90
3614;DHT22;1821;50.936;6.854;2023-08-20T04:22:33;19.90;99.90
3614;DHT22;1821;50.936;6.854;2023-08-20T04:23:15;19.90;99.90
3614;DHT22;1821;50.936;6.854;2023-08-20T04:23:57;20.00;99.90
3614;DHT22;1821;50.936;6.854;2023-08-20T04:24:39;19.90;99.90
3614;DHT22;1821;50.936;6.854;2023-08-20T04:25:21;19.90;99.90
3614;DHT22;1821;50.936;6.854;2023-08-20T04:26:03;20.00;99.90
3614;DHT22;1821;50.936;6.854;2023-08-20T04:26:45;19.90;99.90
3614;DHT22;1821;50.936;6.854;2023-08-20T04:27:27;20.00;99.90
3614;DHT22;1821;50.936;6.854;2023-08-20T04:28:09;19.90;99.90
3614;DHT22;1821;50.936;6.854;2023-08-20T04:28:51;20.00;99.90
3614;DHT22;1821;50.936;6.854;2023-08-20T04:29:33;19.90;64.00
3614;DHT22;1821;50.936;6.854;2023-08-20T04:30:15;20.00;99.90
3614;DHT22;1821;50.936;6.854;2023-08-20T04:31:00;20.00;99.90
3614;DHT22;1821;50.936;6.854;2023-08-20T04:32:25;20.00;75.70
3614;DHT22;1821;50.936;6.854;2023-08-20T04:33:07;20.00;86.80
3614;DHT22;1821;50.936;6.854;2023-08-20T04:33:49;21.60;90.30
3614;DHT22;1821;50.936;6.854;2023-08-20T04:34:32;20.00;49.60
3614;DHT22;1821;50.936;6.854;2023-08-20T04:35:14;20.00;13.00
3614;DHT22;1821;50.936;6.854;2023-08-20T04:35:56;20.00;29.20
3614;DHT22;1821;50.936;6.854;2023-08-20T04:36:38;20.00;4.80
3614;DHT22;1821;50.936;6.854;2023-08-20T04:37:20;19.90;1.00
3614;DHT22;1821;50.936;6.854;2023-08-20T04:38:02;19.90;1.00
3614;DHT22;1821;50.936;6.854;2023-08-20T04:38:44;20.00;1.00
3614;DHT22;1821;50.936;6.854;2023-08-20T04:39:26;20.00;1.00
3614;DHT22;1821;50.936;6.854;2023-08-20T04:40:09;20.00;13.90
3614;DHT22;1821;50.936;6.854;2023-08-20T04:40:51;20.00;1.00
3614;DHT22;1821;50.936;6.854;2023-08-20T04:41:33;20.00;12.60
3614;DHT22;1821;50.936;6.854;2023-08-20T04:42:15;20.00;1.00
3614;DHT22;1821;50.936;6.854;2023-08-20T04:42:57;20.00;2.40
3614;DHT22;1821;50.936;6.854;2023-08-20T04:43:39;20.00;1.00
3614;DHT22;1821;50.936;6.854;2023-08-20T04:44:21;20.00;1.00
3614;DHT22;1821;50.936;6.854;2023-08-20T04:45:03;20.00;8.20
3614;DHT22;1821;50.936;6.854;2023-08-20T04:45:45;20.00;1.00
3614;DHT22;1821;50.936;6.854;2023-08-20T04:46:27;20.00;1.00
3614;DHT22;1821;50.936;6.854;2023-08-20T04:47:13;20.00;1.00
3614;DHT22;1821;50.936;6.854;2023-08-20T04:47:55;19.90;1.00
3614;DHT22;1821;50.936;6.854;2023-08-20T04:48:37;19.90;1.00
3614;DHT22;1821;50.936;6.854;2023-08-20T04:49:19;19.90;1.00
3614;DHT22;1821;50.936;6.854;2023-08-20T04:50:01;19.90;1.00
3614;DHT22;1821;50.936;6.854;2023-08-20T04:50:43;19.90;1.00